• Join FlightAware (Why Join?)
  • Login
  • US Flag 
07:14PM EST


 

Airport Tracker/Info


-or-


 

Live Flight TrackerFlight Track Log ✈ EGF4086 ✈ 18-Apr-2013 ✈ KROC - KORD

Flight Track Log - Related Links

Times and Time Zones

All times are in EDT time to prevent confusion due to time zone crossing. See the EGF4086 flight status page for this flight to view local times or setup timezone preferences in your user account.

Time Position Orientation Groundspeed Altitude Reporting Facility
EDT Latitude Longitude Course Direction KTS MPH feet Rate Location/Type
05:04PM 43.0953 -77.7003 243° Southwest 156 180 1,300  Level Cleveland Center
05:05PM 43.0681 -77.7725 243° Southwest 255 293 3,400 2,040 Climbing Cleveland Center
05:06PM 43.0906 -77.8483 292° West 252 290 5,900 2,400 Climbing Cleveland Center
05:07PM 43.1072 -77.9386 284° West 252 290 8,300 2,160 Climbing Cleveland Center
05:08PM 43.1239 -78.0289 284° West 247 284 10,300 1,620 Climbing Cleveland Center
05:09PM 43.0681 -78.0511 196° South 169 194 11,600 1,200 Climbing Cleveland Center
05:10PM 43.0281 -78.1236 233° Southwest 188 216 12,700 1,260 Climbing Cleveland Center
05:11PM 43.0283 -78.2431 270° West 268 308 14,200 1,500 Climbing Cleveland Center
05:12PM 43.0286 -78.3594 260° West 293 337 15,700 1,500 Climbing Cleveland Center
05:13PM 43.0308 -78.4786 272° West 308 354 17,200 1,500 Climbing Cleveland Center
05:14PM 43.0308 -78.5981 270° West 320 368 18,800 1,500 Climbing Cleveland Center
05:15PM 43.0328 -78.7172 271° West 320 368 20,300 1,200 Climbing Cleveland Center
05:16PM 43.0350 -78.8450 271° West 327 376 21,300 1,080 Climbing Cleveland Center
05:17PM 43.0347 -78.9756 270° West 333 383 22,500 1,440 Climbing Cleveland Center
05:18PM 43.0333 -79.0667 269° West 330 380 24,100 1,440 Climbing Toronto Center
05:19PM 43.0333 -79.2000 270° West 330 380 25,300 1,140 Climbing Toronto Center
05:20PM 43.0333 -79.3333 270° West 330 380 26,400 1,020 Climbing Toronto Center
05:21PM 43.0333 -79.4500 270° West 330 380 27,400 960 Climbing Toronto Center
05:22PM 43.0333 -79.5833 270° West 340 391 28,400 900 Climbing Toronto Center
05:23PM 43.0333 -79.7000 270° West 340 391 29,300 780 Climbing Toronto Center
05:24PM 43.0333 -79.8333 270° West 350 403 30,000 720 Climbing Toronto Center
05:25PM 43.0000 -79.9833 253° West 360 414 30,800 480 Climbing Toronto Center
05:26PM 42.9833 -80.1167 260° West 370 426 31,000 60 Climbing Toronto Center
05:27PM 42.9500 -80.2667 253° West 390 449 31,000  Level Toronto Center
05:28PM 42.9333 -80.4000 260° West 390 449 31,000 240 Level Toronto Center
05:29PM 42.9167 -80.5667 262° West 400 460 31,500 480 Climbing Toronto Center
05:30PM 42.9333 -80.7000 280° West 400 460 32,000 240 Climbing Toronto Center
05:31PM 42.9167 -80.8667 262° West 400 460 32,000  Level Toronto Center
05:32PM 42.9167 -81.0000 270° West 390 449 32,000  Level Toronto Center
05:33PM 42.9333 -81.1667 278° West 390 449 32,000  Level Toronto Center
05:34PM 42.9333 -81.3167 270° West 400 460 32,000  Level Toronto Center
05:35PM 42.9333 -81.4500 270° West 400 460 32,000  Level Toronto Center
05:36PM 42.9500 -81.6000 279° West 400 460 32,000  Level Toronto Center
05:37PM 42.9500 -81.7500 270° West 400 460 32,000  Level Toronto Center
05:38PM 42.9333 -81.9167 262° West 390 449 32,000  Level Toronto Center
05:39PM 42.9333 -82.0500 270° West 390 449 32,000  Level Toronto Center
05:40PM 42.9500 -82.2000 279° West 390 449 32,000  Level Toronto Center
05:41PM 42.9500 -82.3667 270° West 390 449 32,000  Level Toronto Center
05:42PM 42.9500 -82.5000 270° West 390 449 32,000  Level Toronto Center
05:43PM 42.9622 -82.6711 276° West 391 450 32,000  Level Cleveland Center
05:44PM 42.9636 -82.8189 271° West 391 450 32,000  Level Cleveland Center
05:45PM 42.9650 -82.9692 271° West 391 450 32,000  Level Cleveland Center
05:46PM 42.9642 -83.0997 270° West 396 456 32,000  Level Cleveland Center
05:47PM 42.9650 -83.2503 270° West 396 456 32,000  Level Cleveland Center
05:48PM 42.9658 -83.3919 271° West 391 450 32,000  Level Cleveland Center
05:49PM 42.9661 -83.5425 270° West 391 450 32,000  Level Cleveland Center
05:50PM 42.9667 -83.6844 270° West 385 443 32,000  Level Cleveland Center
05:51PM 42.9586 -83.8258 266° West 385 443 32,000  Level Cleveland Center
05:52PM 42.9442 -83.9642 262° West 380 437 32,000  Level Cleveland Center
05:53PM 42.9317 -84.1053 263° West 380 437 32,000  Level Cleveland Center
05:55PM 42.9122 -84.3058 263° West 371 427 32,000  Level Chicago Center
05:56PM 42.8986 -84.4428 262° West 366 421 32,000 -540 Level Chicago Center
05:57PM 42.8811 -84.6078 262° West 367 422 31,000 -1,020 Descending Chicago Center
05:58PM 42.8667 -84.7442 262° West 366 421 30,000 -1,080 Descending Chicago Center
05:59PM 42.8528 -84.8819 262° West 367 422 28,900 -960 Descending Chicago Center
06:00PM 42.8375 -85.0219 262° West 372 428 28,000 -480 Descending Chicago Center
06:01PM 42.8233 -85.1539 262° West 359 413 28,000 -60 Level Chicago Center
06:02PM 42.8100 -85.2850 262° West 351 404 27,900 -840 Descending Chicago Center
06:03PM 42.7919 -85.4442 261° West 353 406 26,400 -1,380 Descending Chicago Center
06:04PM 42.7742 -85.5719 259° West 347 399 25,100 -1,200 Descending Chicago Center
06:06PM 42.7301 -85.7381 259° West  Level FlightAware Approximate
06:08PM 42.6919 -86.0208 251° West 288 331 20,500  Level Chicago Center
06:09PM 42.6728 -86.1253 256° West 284 327 20,000 -300 Descending Chicago Center
06:10PM 42.6536 -86.2317 256° West 288 331 20,000  Level Chicago Center
06:11PM 42.6294 -86.3539 255° West 279 321 20,000 -480 Level Chicago Center
06:12PM 42.6108 -86.4564 256° West 280 322 19,100 -1,440 Descending Chicago Center
06:13PM 42.5662 -86.6278 256° West  Level FlightAware Approximate
06:13PM 42.5928 -86.5569 256° West 275 316 17,100  Level Chicago Center
06:14PM 42.5407 -86.7540 251° West  Level FlightAware Approximate
06:14PM 42.5719 -86.6600 255° West 282 325 15,400  Level Chicago Center
06:16PM 42.5519 -86.7647 255° West 289 333 14,100 -1,140 Descending Chicago Center
06:17PM 42.5269 -86.8503 248° West 250 288 13,100 -1,080 Descending Chicago Center
06:18PM 42.5031 -86.9403 250° West 253 291 12,000 -1,200 Descending Chicago Center
06:19PM 42.4731 -87.0469 249° West 253 291 10,700 -1,200 Descending Chicago Center
06:20PM 42.4483 -87.1339 249° West 249 287 9,600 -840 Descending Chicago Center
06:21PM 42.4183 -87.2192 245° Southwest 254 292 9,000 -300 Descending Chicago Center
06:22PM 42.3794 -87.2961 236° Southwest 250 288 9,000 -180 Level Chicago Center
06:23PM 42.3408 -87.3753 237° Southwest 252 290 8,700 -720 Descending Chicago Center
06:24PM 42.3028 -87.4553 237° Southwest 243 280 7,600 -1,020 Descending Chicago Center
06:25PM 42.2675 -87.5250 236° Southwest 228 262 6,700 -1,020 Descending Chicago Center
06:26PM 42.2250 -87.6117 237° Southwest 233 268 5,500 -1,080 Descending Chicago Center
06:27PM 42.1897 -87.6842 237° Southwest 233 268 4,500 -780 Descending Chicago Center
06:28PM 42.1428 -87.7389 221° Southwest 225 259 4,000 -540 Descending Chicago Center